createdAt,value
2017-10-01T00:02:10.035Z,83.26
2017-10-01T00:04:37.552Z,83.35
2017-10-01T00:07:05.111Z,82.99
2017-10-01T00:09:33.089Z,83.54
2017-10-01T00:12:00.639Z,83.57
2017-10-01T00:14:28.198Z,83.30
2017-10-01T00:16:55.948Z,83.81
2017-10-01T00:19:23.494Z,83.07
2017-10-01T00:21:51.020Z,83.12
2017-10-01T00:24:18.741Z,83.03
2017-10-01T00:26:46.252Z,82.42
2017-10-01T00:29:13.774Z,82.20
2017-10-01T00:31:41.334Z,81.66
2017-10-01T00:34:08.859Z,81.74
2017-10-01T00:36:36.384Z,82.15
2017-10-01T00:39:04.097Z,81.99
2017-10-01T00:41:31.607Z,82.34
2017-10-01T00:43:59.134Z,82.28
2017-10-01T00:46:27.080Z,82.55
2017-10-01T00:48:54.692Z,82.04
2017-10-01T00:51:22.207Z,82.05
2017-10-01T00:53:49.810Z,82.41
2017-10-01T00:56:17.335Z,82.25
2017-10-01T00:58:44.866Z,81.21
2017-10-01T01:01:12.742Z,81.59
2017-10-01T01:03:40.250Z,81.46
2017-10-01T01:06:07.860Z,81.96
2017-10-01T01:08:35.828Z,82.47
2017-10-01T01:11:03.393Z,81.92
2017-10-01T01:13:30.941Z,82.08
2017-10-01T01:15:58.711Z,82.18
2017-10-01T01:18:26.230Z,82.15
2017-10-01T01:20:53.743Z,82.14
2017-10-01T01:23:21.315Z,82.12
2017-10-01T01:25:48.843Z,81.41
2017-10-01T01:28:16.466Z,82.02
2017-10-01T01:30:44.054Z,82.50
2017-10-01T01:33:11.571Z,82.12
2017-10-01T01:35:39.086Z,81.12
2017-10-01T01:38:06.830Z,81.59
2017-10-01T01:40:34.343Z,81.68
2017-10-01T01:43:01.854Z,81.73
2017-10-01T01:45:29.441Z,82.11
2017-10-01T01:47:57.007Z,82.41
2017-10-01T01:50:24.536Z,82.74
2017-10-01T01:52:52.227Z,82.70
2017-10-01T01:55:19.758Z,82.92
2017-10-01T01:57:47.318Z,83.18
2017-10-01T02:00:14.878Z,83.27
2017-10-01T02:02:42.436Z,83.11
2017-10-01T02:05:09.994Z,83.54
2017-10-01T02:07:37.575Z,83.61
2017-10-01T02:10:05.119Z,83.84
2017-10-01T02:12:32.652Z,84.03
2017-10-01T02:15:00.233Z,84.07
2017-10-01T02:17:27.789Z,84.47
2017-10-01T02:19:55.309Z,84.69
2017-10-01T02:22:23.115Z,85.13
2017-10-01T02:24:50.672Z,85.21
2017-10-01T02:27:18.232Z,85.18
2017-10-01T02:29:45.995Z,85.37
2017-10-01T02:32:13.630Z,85.13
2017-10-01T02:34:41.153Z,85.37
2017-10-01T02:37:08.878Z,85.72
2017-10-01T02:39:36.437Z,86.08
2017-10-01T02:42:03.995Z,86.30
2017-10-01T02:44:31.575Z,86.38
2017-10-01T02:46:59.113Z,86.60
2017-10-01T02:49:26.636Z,86.76
2017-10-01T02:51:54.459Z,86.92
2017-10-01T02:54:21.996Z,86.82
2017-10-01T02:56:49.555Z,86.73
2017-10-01T02:59:17.593Z,86.79
2017-10-01T03:01:45.125Z,86.91
2017-10-01T03:04:12.663Z,87.07
2017-10-01T03:06:40.230Z,87.22
2017-10-01T03:09:07.759Z,87.24
2017-10-01T03:11:35.320Z,87.28
2017-10-01T03:14:02.883Z,87.21
2017-10-01T03:16:30.407Z,87.06
2017-10-01T03:18:58.226Z,87.13
2017-10-01T03:21:25.878Z,86.95
2017-10-01T03:23:53.421Z,86.66
2017-10-01T03:26:20.949Z,86.70
2017-10-01T03:28:48.541Z,86.49
2017-10-01T03:31:16.099Z,86.58
2017-10-01T03:33:43.659Z,86.09
2017-10-01T03:36:11.421Z,85.58
2017-10-01T03:38:38.980Z,85.78
2017-10-01T03:41:06.540Z,86.25
2017-10-01T03:43:34.311Z,85.96
2017-10-01T03:46:01.864Z,86.59
2017-10-01T03:48:29.422Z,86.44
2017-10-01T03:50:56.981Z,86.88
2017-10-01T03:53:24.652Z,87.14
2017-10-01T03:55:52.206Z,87.05
2017-10-01T03:58:20.170Z,86.95
2017-10-01T04:00:47.681Z,86.76
2017-10-01T04:03:15.193Z,86.94
2017-10-01T04:05:42.759Z,87.14
2017-10-01T04:08:10.270Z,87.43
2017-10-01T04:10:37.787Z,87.23
2017-10-01T04:13:05.633Z,87.52
2017-10-01T04:15:33.186Z,87.30
2017-10-01T04:18:00.698Z,86.73
2017-10-01T04:20:28.320Z,86.89
2017-10-01T04:22:55.834Z,87.06
2017-10-01T04:25:23.354Z,87.31
2017-10-01T04:27:51.084Z,87.45
2017-10-01T04:30:18.597Z,87.40
2017-10-01T04:32:46.115Z,87.33
2017-10-01T04:35:13.864Z,87.28
2017-10-01T04:37:41.383Z,86.95
2017-10-01T04:40:08.906Z,87.17
2017-10-01T04:42:36.632Z,87.03
2017-10-01T04:45:04.219Z,87.17
2017-10-01T04:47:31.730Z,87.10
2017-10-01T04:49:59.533Z,87.13
2017-10-01T04:52:27.156Z,87.03
2017-10-01T04:54:54.666Z,87.06
2017-10-01T04:57:22.244Z,86.82
2017-10-01T04:59:49.770Z,87.03
2017-10-01T05:02:17.322Z,87.52
2017-10-01T05:04:44.874Z,87.20
2017-10-01T05:07:12.395Z,87.18
2017-10-01T05:09:39.934Z,86.95
2017-10-01T05:12:07.660Z,87.18
2017-10-01T05:14:35.246Z,87.35
2017-10-01T05:17:02.880Z,87.54
2017-10-01T05:19:30.643Z,87.31
2017-10-01T05:21:58.526Z,87.62
2017-10-01T05:24:26.119Z,87.72
2017-10-01T05:26:53.937Z,87.62
2017-10-01T05:29:21.451Z,87.82
2017-10-01T05:31:48.967Z,87.64
2017-10-01T05:34:17.434Z,87.83
2017-10-01T05:36:44.991Z,87.71
2017-10-01T05:39:12.551Z,87.60
2017-10-01T05:41:40.416Z,87.45
2017-10-01T05:44:07.975Z,87.81
2017-10-01T05:46:35.491Z,87.92
2017-10-01T05:49:03.095Z,87.70
2017-10-01T05:51:30.654Z,87.62
2017-10-01T05:53:58.212Z,87.77
2017-10-01T05:56:26.693Z,87.99
2017-10-01T05:58:54.251Z,87.97
2017-10-01T06:01:21.850Z,87.72
2017-10-01T06:03:49.579Z,87.68
2017-10-01T06:06:17.136Z,87.50
2017-10-01T06:08:44.696Z,87.59
2017-10-01T06:11:12.457Z,87.47
2017-10-01T06:13:40.017Z,87.37
2017-10-01T06:16:07.529Z,87.36
2017-10-01T06:18:35.454Z,87.11
2017-10-01T06:21:02.971Z,87.07
2017-10-01T06:23:30.494Z,87.05
2017-10-01T06:25:58.046Z,86.51
2017-10-01T06:28:25.575Z,83.53
2017-10-01T06:30:53.140Z,81.93
2017-10-01T06:33:20.723Z,81.40
2017-10-01T06:35:48.252Z,81.80
2017-10-01T06:38:15.811Z,79.82
2017-10-01T06:40:43.406Z,79.02
2017-10-01T06:43:10.922Z,79.18
2017-10-01T06:45:39.860Z,80.25
2017-10-01T06:48:07.686Z,80.40
2017-10-01T06:50:35.223Z,80.28
2017-10-01T06:53:02.813Z,81.05
2017-10-01T06:55:30.394Z,81.89
2017-10-01T06:57:58.007Z,82.06
2017-10-01T07:00:25.534Z,82.42
2017-10-01T07:02:53.450Z,81.97
2017-10-01T07:05:21.008Z,81.96
2017-10-01T07:07:48.575Z,81.70
2017-10-01T07:10:16.139Z,80.94
2017-10-01T07:12:43.685Z,81.06
2017-10-01T07:15:11.361Z,80.29
2017-10-01T07:17:38.926Z,79.71
2017-10-01T07:20:06.555Z,79.74
2017-10-01T07:22:34.130Z,79.74
2017-10-01T07:25:01.718Z,79.50
2017-10-01T07:27:29.258Z,78.69
2017-10-01T07:29:56.805Z,77.93
2017-10-01T07:32:24.550Z,77.49
2017-10-01T07:34:52.078Z,77.55
2017-10-01T07:37:19.613Z,76.61
2017-10-01T07:39:47.190Z,75.87
2017-10-01T07:42:14.740Z,75.30
2017-10-01T07:44:42.346Z,74.40
2017-10-01T07:47:10.128Z,74.10
2017-10-01T07:49:37.647Z,73.84
2017-10-01T07:52:05.170Z,73.57
2017-10-01T07:54:33.103Z,70.82
2017-10-01T07:57:00.614Z,71.08
2017-10-01T07:59:28.133Z,70.08
2017-10-01T08:01:55.893Z,68.64
2017-10-01T08:04:23.407Z,67.05
2017-10-01T08:06:50.922Z,67.60
2017-10-01T08:09:18.672Z,65.72
2017-10-01T08:11:46.182Z,64.64
2017-10-01T08:14:13.689Z,64.34
2017-10-01T08:16:41.434Z,61.97
2017-10-01T08:19:09.012Z,62.04
2017-10-01T08:21:36.571Z,58.89
2017-10-01T08:24:04.215Z,57.93
2017-10-01T08:26:31.738Z,57.21
2017-10-01T08:28:59.454Z,57.78
2017-10-01T08:31:27.035Z,55.92
2017-10-01T08:33:54.939Z,57.36
2017-10-01T08:36:22.554Z,58.58
2017-10-01T08:38:50.307Z,55.92
2017-10-01T08:41:17.852Z,54.27
2017-10-01T08:43:45.524Z,52.37
2017-10-01T08:46:13.089Z,52.36
2017-10-01T08:48:41.057Z,51.01
2017-10-01T08:51:09.737Z,49.47
2017-10-01T08:53:38.499Z,48.62
2017-10-01T08:56:06.298Z,47.87
2017-10-01T08:58:33.878Z,49.18
2017-10-01T09:01:01.889Z,50.73
2017-10-01T09:03:29.583Z,48.39
2017-10-01T09:05:57.364Z,50.95
2017-10-01T09:08:25.098Z,52.02
2017-10-01T09:10:52.790Z,52.29
2017-10-01T09:13:20.559Z,51.76
2017-10-01T09:15:48.706Z,42.62
2017-10-01T09:18:16.267Z,37.97
2017-10-01T09:20:44.344Z,32.17
2017-10-01T09:23:12.422Z,26.08
2017-10-01T09:25:40.261Z,23.82
2017-10-01T09:28:07.937Z,23.08
2017-10-01T09:30:35.709Z,22.08
2017-10-01T09:33:03.778Z,21.58
2017-10-01T09:35:31.567Z,20.75
2017-10-01T09:37:59.472Z,19.43
2017-10-01T09:40:27.010Z,20.17
2017-10-01T09:42:54.530Z,18.97
2017-10-01T09:45:22.489Z,17.83
2017-10-01T09:47:49.994Z,19.06
2017-10-01T09:50:17.526Z,18.19
2017-10-01T09:52:45.499Z,18.77
2017-10-01T09:55:13.034Z,18.43
2017-10-01T09:57:40.809Z,18.39
2017-10-01T10:00:08.766Z,19.30
2017-10-01T10:02:36.325Z,18.28
2017-10-01T10:05:03.903Z,18.24
2017-10-01T10:07:31.955Z,17.72
2017-10-01T10:09:59.541Z,15.62
2017-10-01T10:12:27.160Z,14.85
2017-10-01T10:14:54.838Z,16.42
2017-10-01T10:17:22.498Z,15.08
2017-10-01T10:19:50.364Z,16.99
2017-10-01T10:22:18.128Z,16.12
2017-10-01T10:24:45.774Z,16.92
2017-10-01T10:27:13.556Z,15.75
2017-10-01T10:29:41.428Z,16.12
2017-10-01T10:32:09.287Z,15.20
2017-10-01T10:34:37.058Z,15.86
2017-10-01T10:37:04.870Z,15.21
2017-10-01T10:39:32.582Z,15.26
2017-10-01T10:42:00.239Z,15.99
2017-10-01T10:44:27.901Z,15.63
2017-10-01T10:46:55.631Z,13.35
2017-10-01T10:49:24.351Z,15.90
2017-10-01T10:51:52.132Z,15.93
2017-10-01T10:54:20.400Z,16.39
2017-10-01T10:56:48.256Z,13.27
2017-10-01T10:59:16.195Z,12.63
2017-10-01T11:01:44.004Z,13.59
2017-10-01T11:04:12.367Z,13.03
2017-10-01T11:06:40.361Z,13.81
2017-10-01T11:09:08.103Z,15.20
2017-10-01T11:11:35.934Z,12.95
2017-10-01T11:14:04.038Z,13.84
2017-10-01T11:16:31.904Z,12.56
2017-10-01T11:18:59.770Z,13.92
2017-10-01T11:21:27.535Z,14.83
2017-10-01T11:23:55.115Z,14.24
2017-10-01T11:26:23.061Z,15.67
2017-10-01T11:28:50.915Z,13.69
2017-10-01T11:31:18.589Z,13.01
2017-10-01T11:33:46.455Z,13.40
2017-10-01T11:36:14.324Z,13.88
2017-10-01T11:38:42.059Z,12.61
2017-10-01T11:41:09.646Z,12.32
2017-10-01T11:43:37.562Z,12.28
2017-10-01T11:46:06.105Z,13.22
2017-10-01T11:48:33.659Z,13.63
2017-10-01T11:51:01.524Z,14.84
2017-10-01T11:53:29.360Z,15.06
2017-10-01T11:55:56.945Z,15.95
2017-10-01T11:58:25.017Z,13.56
2017-10-01T12:00:52.576Z,14.83
2017-10-01T12:03:20.135Z,12.24
2017-10-01T12:05:47.763Z,12.80
2017-10-01T12:08:15.768Z,12.93
2017-10-01T12:10:43.323Z,13.65
2017-10-01T12:13:11.271Z,14.19
2017-10-01T12:15:38.794Z,14.17
2017-10-01T12:18:06.310Z,14.75
2017-10-01T12:20:34.105Z,15.51
2017-10-01T12:23:01.838Z,14.90
2017-10-01T12:25:29.434Z,14.14
2017-10-01T12:27:57.178Z,15.03
2017-10-01T12:30:24.727Z,14.58
2017-10-01T12:32:52.279Z,13.26
2017-10-01T12:35:20.014Z,12.79
2017-10-01T12:37:47.704Z,12.13
2017-10-01T12:40:15.291Z,11.81
2017-10-01T12:42:42.922Z,12.06
2017-10-01T12:45:10.430Z,16.48
2017-10-01T12:47:37.942Z,21.56
2017-10-01T12:50:05.499Z,25.71
2017-10-01T12:52:33.059Z,27.44
2017-10-01T12:55:00.822Z,31.38
2017-10-01T12:57:28.839Z,30.11
2017-10-01T12:59:56.407Z,25.95
2017-10-01T13:02:24.145Z,23.38
2017-10-01T13:04:51.858Z,20.68
2017-10-01T13:07:19.452Z,20.41
2017-10-01T13:09:47.009Z,20.26
2017-10-01T13:12:14.664Z,17.30
2017-10-01T13:14:42.280Z,16.78
2017-10-01T13:17:10.084Z,17.02
2017-10-01T13:19:37.645Z,16.15
2017-10-01T13:22:05.208Z,16.07
2017-10-01T13:24:32.726Z,16.76
2017-10-01T13:27:00.246Z,16.40
2017-10-01T13:29:28.602Z,16.95
2017-10-01T13:31:56.351Z,16.83
2017-10-01T13:34:23.872Z,18.17
2017-10-01T13:36:51.422Z,19.47
2017-10-01T13:39:19.447Z,19.62
2017-10-01T13:41:46.954Z,19.62
2017-10-01T13:44:14.669Z,21.14
2017-10-01T13:46:42.209Z,22.59
2017-10-01T13:49:09.717Z,23.80
2017-10-01T13:51:37.246Z,24.86
2017-10-01T13:54:04.802Z,25.37
2017-10-01T13:56:32.771Z,24.85
2017-10-01T13:59:00.274Z,23.40
2017-10-01T14:01:27.786Z,21.59
2017-10-01T14:03:55.291Z,23.15
2017-10-01T14:06:22.801Z,24.10
2017-10-01T14:08:50.386Z,25.76
2017-10-01T14:11:17.924Z,27.25
2017-10-01T14:13:45.888Z,28.89
2017-10-01T14:16:13.448Z,28.43
2017-10-01T14:18:40.955Z,27.43
2017-10-01T14:21:08.483Z,27.14
2017-10-01T14:23:35.998Z,29.84
2017-10-01T14:26:04.196Z,30.60
2017-10-01T14:28:31.772Z,31.49
2017-10-01T14:31:05.167Z,32.20
2017-10-01T14:33:32.709Z,33.44
2017-10-01T14:36:00.213Z,33.97
2017-10-01T14:38:27.726Z,33.71
2017-10-01T14:40:55.287Z,34.92
2017-10-01T14:43:23.055Z,36.71
2017-10-01T14:45:50.609Z,38.00
2017-10-01T14:48:18.167Z,38.47
2017-10-01T14:50:45.726Z,37.65
2017-10-01T14:53:16.195Z,38.84
2017-10-01T14:55:43.999Z,40.49
2017-10-01T14:58:11.519Z,40.18
2017-10-01T15:00:39.032Z,40.76
2017-10-01T15:03:06.592Z,40.56
2017-10-01T15:05:34.257Z,42.33
2017-10-01T15:08:01.834Z,41.87
2017-10-01T15:10:29.586Z,42.34
2017-10-01T15:12:57.248Z,42.78
2017-10-01T15:15:25.312Z,42.72
2017-10-01T15:17:52.905Z,44.37
2017-10-01T15:20:20.634Z,45.18
2017-10-01T15:22:48.230Z,45.36
2017-10-01T15:25:15.760Z,44.83
2017-10-01T15:27:43.333Z,45.77
2017-10-01T15:30:10.976Z,45.96
2017-10-01T15:32:38.559Z,47.09
2017-10-01T15:35:06.198Z,46.57
2017-10-01T15:37:34.779Z,47.90
2017-10-01T15:40:02.542Z,47.46
2017-10-01T15:42:30.203Z,47.68
2017-10-01T15:44:57.976Z,48.81
2017-10-01T15:47:25.577Z,48.51
2017-10-01T15:49:53.104Z,49.17
2017-10-01T15:52:20.677Z,49.76
2017-10-01T15:54:48.617Z,49.40
2017-10-01T15:57:16.889Z,49.12
2017-10-01T15:59:44.666Z,49.68
2017-10-01T16:02:12.424Z,49.38
2017-10-01T16:04:40.183Z,50.04
2017-10-01T16:07:08.354Z,50.33
2017-10-01T16:09:36.325Z,50.85
2017-10-01T16:12:04.089Z,50.74
2017-10-01T16:14:31.799Z,51.89
2017-10-01T16:16:59.464Z,52.22
2017-10-01T16:19:27.174Z,52.70
2017-10-01T16:21:56.666Z,53.17
2017-10-01T16:24:24.443Z,52.76
2017-10-01T16:26:52.638Z,52.70
2017-10-01T16:29:20.379Z,53.83
2017-10-01T16:31:48.041Z,54.31
2017-10-01T16:34:15.908Z,54.30
2017-10-01T16:36:43.979Z,55.05
2017-10-01T16:39:12.007Z,55.72
2017-10-01T16:41:39.813Z,56.08
2017-10-01T16:44:07.680Z,56.78
2017-10-01T16:46:35.547Z,56.62
2017-10-01T16:49:03.178Z,57.67
2017-10-01T16:51:31.064Z,57.43
2017-10-01T16:53:58.851Z,58.33
2017-10-01T16:56:26.509Z,57.73
2017-10-01T16:58:54.490Z,58.19
2017-10-01T17:01:22.949Z,58.85
2017-10-01T17:03:50.719Z,59.41
2017-10-01T17:06:18.477Z,59.61
2017-10-01T17:08:46.457Z,60.02
2017-10-01T17:11:14.516Z,60.06
2017-10-01T17:13:42.279Z,60.03
2017-10-01T17:16:10.236Z,60.54
2017-10-01T17:18:37.916Z,60.82
2017-10-01T17:21:06.021Z,61.56
2017-10-01T17:23:34.163Z,61.53
2017-10-01T17:26:01.768Z,60.07
2017-10-01T17:28:29.477Z,60.07
2017-10-01T17:30:57.255Z,59.83
2017-10-01T17:33:25.025Z,59.38
2017-10-01T17:35:52.720Z,59.52
2017-10-01T17:38:20.444Z,59.84
2017-10-01T17:40:48.216Z,59.69
2017-10-01T17:43:15.857Z,59.97
2017-10-01T17:45:43.589Z,60.11
2017-10-01T17:48:11.794Z,60.65
2017-10-01T17:50:39.455Z,62.40
2017-10-01T17:53:07.116Z,62.23
2017-10-01T17:55:34.882Z,63.52
2017-10-01T17:58:02.736Z,63.50
2017-10-01T18:00:30.613Z,64.31
2017-10-01T18:02:58.683Z,64.27
2017-10-01T18:05:26.296Z,64.82
2017-10-01T18:07:54.018Z,65.15
2017-10-01T18:10:21.810Z,65.71
2017-10-01T18:12:49.636Z,65.10
2017-10-01T18:15:17.271Z,65.90
2017-10-01T18:17:44.921Z,66.18
2017-10-01T18:20:12.588Z,65.20
2017-10-01T18:22:40.298Z,66.39
2017-10-01T18:25:08.301Z,67.63
2017-10-01T18:27:36.016Z,66.80
2017-10-01T18:30:03.581Z,66.88
2017-10-01T18:32:31.337Z,67.05
2017-10-01T18:35:01.162Z,67.57
2017-10-01T18:37:28.702Z,67.93
2017-10-01T18:39:56.575Z,68.09
2017-10-01T18:42:24.103Z,67.77
2017-10-01T18:44:52.030Z,67.66
2017-10-01T18:47:19.823Z,68.13
2017-10-01T18:49:47.529Z,68.62
2017-10-01T18:52:15.396Z,69.39
2017-10-01T18:54:43.339Z,69.47
2017-10-01T18:57:11.363Z,69.61
2017-10-01T18:59:39.042Z,70.07
2017-10-01T19:02:07.075Z,70.46
2017-10-01T19:04:34.940Z,70.45
2017-10-01T19:07:02.719Z,70.90
2017-10-01T19:09:30.576Z,71.06
2017-10-01T19:11:58.327Z,71.31
2017-10-01T19:14:25.917Z,71.39
2017-10-01T19:16:53.962Z,71.10
2017-10-01T19:19:22.131Z,71.08
2017-10-01T19:21:49.805Z,71.48
2017-10-01T19:24:17.691Z,71.45
2017-10-01T19:26:45.422Z,71.40
2017-10-01T19:29:13.123Z,71.19
2017-10-01T19:31:40.776Z,71.07
2017-10-01T19:34:08.681Z,71.24
2017-10-01T19:36:36.500Z,71.76
2017-10-01T19:39:04.754Z,72.01
2017-10-01T19:41:32.620Z,72.09
2017-10-01T19:44:01.000Z,72.49
2017-10-01T19:46:29.448Z,72.66
2017-10-01T19:48:57.434Z,72.72
2017-10-01T19:51:25.079Z,73.06
2017-10-01T19:53:53.130Z,73.38
2017-10-01T19:56:20.841Z,73.27
2017-10-01T19:58:48.606Z,73.34
2017-10-01T20:01:16.275Z,73.43
2017-10-01T20:03:43.931Z,74.14
2017-10-01T20:06:11.897Z,74.39
2017-10-01T20:08:39.866Z,74.63
2017-10-01T20:11:07.539Z,74.52
2017-10-01T20:13:35.501Z,74.13
2017-10-01T20:16:03.572Z,74.28
2017-10-01T20:18:31.331Z,74.18
2017-10-01T20:20:59.096Z,74.05
2017-10-01T20:23:28.105Z,74.51
2017-10-01T20:25:56.771Z,74.37
2017-10-01T20:28:24.448Z,74.52
2017-10-01T20:30:52.617Z,74.68
2017-10-01T20:33:20.479Z,74.90
2017-10-01T20:35:48.237Z,75.00
2017-10-01T20:38:16.317Z,75.21
2017-10-01T20:40:44.079Z,74.99
2017-10-01T20:43:11.770Z,74.82
2017-10-01T20:45:39.500Z,75.10
2017-10-01T20:48:07.265Z,75.13
2017-10-01T20:50:34.924Z,75.63
2017-10-01T20:53:02.798Z,76.16
2017-10-01T20:55:30.571Z,76.63
2017-10-01T20:57:58.318Z,76.32
2017-10-01T21:00:26.389Z,76.25
2017-10-01T21:02:54.153Z,75.83
2017-10-01T21:05:22.020Z,75.86
2017-10-01T21:07:49.889Z,75.65
2017-10-01T21:10:17.634Z,75.53
2017-10-01T21:12:45.619Z,75.34
2017-10-01T21:15:13.485Z,75.22
2017-10-01T21:17:41.146Z,75.21
2017-10-01T21:20:08.801Z,74.80
2017-10-01T21:22:36.619Z,74.75
2017-10-01T21:25:04.341Z,74.72
2017-10-01T21:27:31.896Z,74.84
2017-10-01T21:29:59.864Z,74.79
2017-10-01T21:32:27.479Z,74.99
2017-10-01T21:34:55.009Z,75.13
2017-10-01T21:37:22.645Z,75.23
2017-10-01T21:39:50.185Z,75.11
2017-10-01T21:42:17.693Z,74.81
2017-10-01T21:44:45.566Z,74.62
2017-10-01T21:47:13.091Z,74.31
2017-10-01T21:49:40.780Z,73.64
2017-10-01T21:52:08.613Z,73.50
2017-10-01T21:54:36.200Z,73.83
2017-10-01T21:57:03.750Z,73.62
2017-10-01T21:59:31.801Z,73.94
2017-10-01T22:01:59.362Z,73.29
2017-10-01T22:04:26.952Z,73.14
2017-10-01T22:06:54.571Z,72.93
2017-10-01T22:09:22.242Z,72.51
2017-10-01T22:11:49.827Z,72.31
2017-10-01T22:14:17.383Z,72.06
2017-10-01T22:16:44.920Z,72.09
2017-10-01T22:19:13.387Z,72.05
2017-10-01T22:21:41.015Z,71.96
2017-10-01T22:24:08.555Z,71.93
2017-10-01T22:26:36.591Z,71.72
2017-10-01T22:29:04.356Z,71.56
2017-10-01T22:31:31.914Z,71.05
2017-10-01T22:33:59.454Z,71.01
2017-10-01T22:36:27.045Z,70.68
2017-10-01T22:38:54.575Z,70.26
2017-10-01T22:41:22.090Z,70.39
2017-10-01T22:43:49.793Z,70.02
2017-10-01T22:46:17.307Z,69.77
2017-10-01T22:48:44.826Z,70.20
2017-10-01T22:51:12.671Z,70.21
2017-10-01T22:53:40.186Z,70.16
2017-10-01T22:56:07.718Z,70.08
2017-10-01T22:58:35.677Z,70.04
2017-10-01T23:01:03.238Z,70.21
2017-10-01T23:03:30.796Z,69.96
2017-10-01T23:05:58.537Z,70.32
2017-10-01T23:08:26.426Z,70.17
2017-10-01T23:10:53.985Z,70.39
2017-10-01T23:13:21.750Z,70.33
2017-10-01T23:15:49.308Z,70.52
2017-10-01T23:18:16.891Z,70.73
2017-10-01T23:20:44.475Z,70.80
2017-10-01T23:23:12.006Z,70.68
2017-10-01T23:25:39.532Z,70.52
2017-10-01T23:28:07.513Z,70.45
2017-10-01T23:30:35.087Z,70.29
2017-10-01T23:33:02.631Z,70.32
2017-10-01T23:35:30.190Z,69.90
2017-10-01T23:37:57.779Z,69.94
2017-10-01T23:40:25.307Z,70.11
2017-10-01T23:42:52.869Z,70.13
2017-10-01T23:45:20.426Z,69.86
2017-10-01T23:47:47.985Z,69.80
2017-10-01T23:50:15.722Z,69.50
2017-10-01T23:52:43.242Z,69.59
2017-10-01T23:55:10.771Z,69.53
2017-10-01T23:57:38.734Z,70.35
